Time;durP1;ratioP1;P1;durP2;ratioP2;P2;SDS_P1;SDS_P2;PMS_P1;PMS_P2;Temp;Humidity;BMP_temperature;BMP_pressure;BME280_temperature;BME280_humidity;BME280_pressure;Samples;Min_cycle;Max_cycle;Signal;HPM_P1;HPM_P2
2021/09/11 00:08:49;;;;;;;13.1;10.9;;;;;;;10.05;100;98730.16;;;;
2021/09/11 00:18:48;;;;;;;18.4;12.9;;;;;;;9.93;100;98727.96;;;;
2021/09/11 00:28:47;;;;;;;15.2;12.8;;;;;;;9.88;100;98725.39;;;;
2021/09/11 00:38:46;;;;;;;14.4;12.6;;;;;;;9.78;100;98711.33;;;;
2021/09/11 00:48:44;;;;;;;14.4;10.5;;;;;;;9.59;100;98706.83;;;;
2021/09/11 00:58:43;;;;;;;14;11.7;;;;;;;9.39;100;98706.4;;;;
2021/09/11 01:08:42;;;;;;;15;9.9;;;;;;;9.2;100;98705.67;;;;
2021/09/11 01:18:41;;;;;;;11.3;9.8;;;;;;;9.04;100;98708.61;;;;
2021/09/11 01:28:41;;;;;;;15.8;10.9;;;;;;;9.01;100;98713.77;;;;
2021/09/11 01:38:41;;;;;;;13.2;10.2;;;;;;;8.94;100;98707.98;;;;
2021/09/11 01:48:37;;;;;;;12;10.7;;;;;;;8.84;100;98716.2;;;;
2021/09/11 01:58:35;;;;;;;13.6;12.2;;;;;;;8.78;100;98725.44;;;;
2021/09/11 02:08:34;;;;;;;16.8;13.3;;;;;;;8.74;100;98724.42;;;;
2021/09/11 02:18:33;;;;;;;18;14.7;;;;;;;8.74;100;98719.05;;;;
2021/09/11 02:28:32;;;;;;;19.2;13.8;;;;;;;8.75;100;98721.42;;;;
2021/09/11 02:38:30;;;;;;;19.7;14.8;;;;;;;8.73;100;98720.13;;;;
2021/09/11 02:48:29;;;;;;;14.9;12.6;;;;;;;8.74;100;98710.98;;;;
2021/09/11 02:58:28;;;;;;;21.7;13.3;;;;;;;8.72;100;98715.84;;;;
2021/09/11 03:08:26;;;;;;;15.4;11.8;;;;;;;8.53;100;98719.35;;;;
2021/09/11 03:18:25;;;;;;;14.7;13.2;;;;;;;8.35;100;98722.02;;;;
2021/09/11 03:28:24;;;;;;;15.8;13.2;;;;;;;8.27;100;98711.88;;;;
2021/09/11 03:38:23;;;;;;;17.3;13;;;;;;;8.2;100;98700.7;;;;
2021/09/11 03:48:21;;;;;;;13.2;11.8;;;;;;;8.1;100;98704.33;;;;
2021/09/11 03:58:20;;;;;;;14.6;11.5;;;;;;;8.18;100;98684.09;;;;
2021/09/11 04:08:19;;;;;;;19.1;13.9;;;;;;;8.18;100;98692.95;;;;
2021/09/11 04:18:17;;;;;;;13.7;9.8;;;;;;;8.14;100;98691.92;;;;
2021/09/11 04:28:16;;;;;;;12.2;10.2;;;;;;;8.09;100;98695.47;;;;
2021/09/11 04:38:14;;;;;;;14.3;12.5;;;;;;;8.14;100;98696.5;;;;
2021/09/11 04:48:13;;;;;;;16;12.7;;;;;;;8.2;100;98700.7;;;;
2021/09/11 04:58:11;;;;;;;19;12.1;;;;;;;8.33;100;98711.55;;;;
2021/09/11 05:08:11;;;;;;;25;13.2;;;;;;;8.62;100;98714.11;;;;
2021/09/11 05:18:09;;;;;;;16.6;13.6;;;;;;;9.07;100;98721.45;;;;
2021/09/11 05:28:07;;;;;;;12.7;11.4;;;;;;;9.57;100;98714.41;;;;
2021/09/11 05:38:06;;;;;;;18.1;13.5;;;;;;;10.22;100;98729.58;;;;
2021/09/11 05:48:05;;;;;;;19.1;14;;;;;;;10.84;100;98723.33;;;;
2021/09/11 05:58:04;;;;;;;19.2;13.9;;;;;;;11.48;100;98719.32;;;;
2021/09/11 06:08:03;;;;;;;22.4;12.2;;;;;;;12.06;100;98724.5;;;;
2021/09/11 06:18:02;;;;;;;16.6;11.4;;;;;;;12.39;100;98732.98;;;;
2021/09/11 06:28:01;;;;;;;14.4;11.9;;;;;;;12.96;100;98736.38;;;;
2021/09/11 06:38:00;;;;;;;13.2;10.7;;;;;;;13.52;100;98737.28;;;;
2021/09/11 06:47:59;;;;;;;21.2;13;;;;;;;14.11;100;98741.69;;;;
2021/09/11 06:57:58;;;;;;;13.2;10.2;;;;;;;14.43;100;98751.11;;;;
2021/09/11 07:07:58;;;;;;;15;12;;;;;;;15.04;100;98741.39;;;;
2021/09/11 07:17:57;;;;;;;19.3;11.8;;;;;;;15.75;100;98741.2;;;;
2021/09/11 07:27:57;;;;;;;13.2;9.6;;;;;;;16.44;100;98749.27;;;;
2021/09/11 07:37:56;;;;;;;12.7;9.6;;;;;;;17.02;100;98756.08;;;;
2021/09/11 07:47:56;;;;;;;12.8;8.9;;;;;;;17.84;100;98761.07;;;;
2021/09/11 07:57:56;;;;;;;12.6;8;;;;;;;18.67;100;98762.7;;;;
2021/09/11 08:07:56;;;;;;;9.8;6;;;;;;;19.19;100;98764.98;;;;
2021/09/11 08:17:55;;;;;;;7.9;4.6;;;;;;;19.85;100;98759.24;;;;
2021/09/11 08:27:56;;;;;;;6;3.7;;;;;;;20.09;100;98758.88;;;;
2021/09/11 08:37:56;;;;;;;5;3.1;;;;;;;20.52;100;98752.92;;;;
2021/09/11 08:47:56;;;;;;;8.8;4.9;;;;;;;21.03;100;98753.23;;;;
2021/09/11 08:57:56;;;;;;;5.9;4.2;;;;;;;21.36;100;98754.44;;;;
2021/09/11 09:07:56;;;;;;;17;4.4;;;;;;;21.82;100;98744.75;;;;
2021/09/11 09:17:56;;;;;;;6.3;3;;;;;;;22.16;100;98734.48;;;;
2021/09/11 09:27:56;;;;;;;7.5;4;;;;;;;22.49;100;98742.55;;;;
2021/09/11 09:38:00;;;;;;;7.4;3.4;;;;;;;23.03;100;98733.48;;;;
2021/09/11 09:47:57;;;;;;;7.5;2.9;;;;;;;23.37;84.24023;98725.73;;;;
2021/09/11 09:57:58;;;;;;;7.8;3.2;;;;;;;23.54;82.31152;98732.48;;;;
2021/09/11 10:07:58;;;;;;;10.1;3.8;;;;;;;23.59;64.26465;98737.63;;;;
2021/09/11 10:17:59;;;;;;;7.6;3;;;;;;;23.82;53.44727;98737.25;;;;
2021/09/11 10:27:59;;;;;;;5.8;2.3;;;;;;;23.94;48.59766;98731.38;;;;
2021/09/11 10:38:01;;;;;;;5.5;2.3;;;;;;;23.81;52.52148;98730.2;;;;
2021/09/11 10:58:01;;;;;;;6.5;3.1;;;;;;;24.29;49.46875;98725.11;;;;
2021/09/11 11:08:08;;;;;;;8;2.6;;;;;;;24.42;51.71289;98718.8;;;;
2021/09/11 11:18:03;;;;;;;5.6;2.6;;;;;;;24.51;55.08984;98715.62;;;;
2021/09/11 11:28:03;;;;;;;7.2;3.2;;;;;;;24.71;47.50586;98699.45;;;;
2021/09/11 11:38:04;;;;;;;10.3;3.7;;;;;;;24.58;53.47852;98692.77;;;;
2021/09/11 11:48:05;;;;;;;9.9;3.6;;;;;;;24.85;53.875;98685.65;;;;
2021/09/11 11:58:05;;;;;;;7.8;3;;;;;;;24.9;53.75293;98674.98;;;;
2021/09/11 12:08:07;;;;;;;9;3.2;;;;;;;25.11;52.54297;98670.55;;;;
2021/09/11 12:18:14;;;;;;;5.6;2.8;;;;;;;25.17;47.41309;98668.93;;;;
2021/09/11 12:28:07;;;;;;;6.2;2.9;;;;;;;25.17;49.43555;98655.14;;;;
2021/09/11 12:38:08;;;;;;;4.9;2.6;;;;;;;25.28;49.0957;98644.83;;;;
2021/09/11 12:48:09;;;;;;;12.2;3.3;;;;;;;25.35;52.11426;98642.81;;;;
2021/09/11 12:58:10;;;;;;;4.6;2.9;;;;;;;25.59;53.59961;98627.3;;;;
2021/09/11 13:08:11;;;;;;;12.1;4.9;;;;;;;25.68;43.4834;98624.88;;;;
2021/09/11 13:18:12;;;;;;;11;4.9;;;;;;;25.8;43.55371;98618.05;;;;
2021/09/11 13:28:13;;;;;;;5.7;2.8;;;;;;;25.7;44.25195;98622.48;;;;
2021/09/11 13:38:13;;;;;;;5.9;3.1;;;;;;;25.92;43.625;98621.13;;;;
2021/09/11 13:48:14;;;;;;;5.8;2.6;;;;;;;26.1;45.68359;98604.38;;;;
2021/09/11 13:58:15;;;;;;;6.3;3.3;;;;;;;26.26;43.45605;98590.02;;;;
2021/09/11 14:08:16;;;;;;;6.7;3.1;;;;;;;26.56;49.14063;98592.03;;;;
2021/09/11 14:18:17;;;;;;;6.1;3.1;;;;;;;26.66;46.04785;98586.37;;;;
2021/09/11 14:28:18;;;;;;;8.2;3;;;;;;;26.61;45.58105;98592.38;;;;
2021/09/11 14:38:19;;;;;;;7;3;;;;;;;26.54;51.68555;98581.4;;;;
2021/09/11 14:48:20;;;;;;;6.4;3.8;;;;;;;26.63;51.8252;98595.49;;;;
2021/09/11 14:58:21;;;;;;;8.2;4.2;;;;;;;26.52;46.69434;98587.33;;;;
2021/09/11 15:08:22;;;;;;;8;4.3;;;;;;;27.09;46.63379;98588.59;;;;
2021/09/11 15:18:22;;;;;;;7;3.5;;;;;;;29.09;42.31445;98590.92;;;;
2021/09/11 15:28:24;;;;;;;7.7;3.9;;;;;;;30.64;39.28516;98580.63;;;;
2021/09/11 15:38:25;;;;;;;12.3;6;;;;;;;30.62;43.2207;98580.27;;;;
2021/09/11 15:48:27;;;;;;;10.4;3.2;;;;;;;31.02;41.94531;98583.49;;;;
2021/09/11 15:58:28;;;;;;;7.1;3.7;;;;;;;30.81;49.71094;98580.11;;;;
2021/09/11 16:08:30;;;;;;;8.5;3.3;;;;;;;30.81;50.5791;98579.32;;;;
2021/09/11 16:18:31;;;;;;;5.1;3;;;;;;;30.05;46.93945;98592.18;;;;
2021/09/11 16:28:33;;;;;;;10.3;6.2;;;;;;;28.66;51.71484;98574.38;;;;
2021/09/11 16:38:34;;;;;;;12;6.1;;;;;;;26.12;62.67773;98565.27;;;;
2021/09/11 16:48:35;;;;;;;12;7.8;;;;;;;24.08;74.9209;98565.38;;;;
2021/09/11 16:58:36;;;;;;;15.2;10.4;;;;;;;22.32;89.36035;98551;;;;
2021/09/11 17:08:37;;;;;;;14.7;10.1;;;;;;;21.05;98.93848;98548.13;;;;
2021/09/11 17:18:37;;;;;;;26.9;16.4;;;;;;;19.99;100;98555.06;;;;
2021/09/11 17:28:37;;;;;;;50.9;40.2;;;;;;;19.13;100;98554.08;;;;
2021/09/11 17:38:37;;;;;;;71.9;44.8;;;;;;;18.42;100;98554.69;;;;
2021/09/11 17:48:37;;;;;;;50.1;41;;;;;;;17.9;100;98571.52;;;;
2021/09/11 17:58:38;;;;;;;54;39.4;;;;;;;17.38;100;98575.34;;;;
2021/09/11 18:08:37;;;;;;;34.7;31.2;;;;;;;16.9;100;98583.83;;;;
2021/09/11 18:18:36;;;;;;;24.5;21.8;;;;;;;16.54;100;98603.8;;;;
2021/09/11 18:28:36;;;;;;;21.9;17.7;;;;;;;16.15;100;98607.3;;;;
2021/09/11 18:38:36;;;;;;;14.9;12.2;;;;;;;15.77;100;98611.2;;;;
2021/09/11 18:48:35;;;;;;;31.2;21.7;;;;;;;15.5;100;98612.69;;;;
2021/09/11 18:58:35;;;;;;;29.9;26.3;;;;;;;15.35;100;98618.73;;;;
2021/09/11 19:08:35;;;;;;;30.5;26.8;;;;;;;15.24;100;98614.1;;;;
2021/09/11 19:18:34;;;;;;;34;21.6;;;;;;;15.09;100;98605.48;;;;
2021/09/11 19:28:33;;;;;;;22.2;17.2;;;;;;;14.85;100;98618.98;;;;
2021/09/11 19:38:32;;;;;;;29.3;19.3;;;;;;;14.72;100;98630.09;;;;
2021/09/11 19:48:32;;;;;;;26.3;23.2;;;;;;;14.53;100;98634.11;;;;
2021/09/11 19:58:32;;;;;;;27.4;24.6;;;;;;;14.27;100;98630.75;;;;
2021/09/11 20:08:31;;;;;;;37.5;26.1;;;;;;;14.03;100;98636.83;;;;
2021/09/11 20:18:30;;;;;;;32.8;25.4;;;;;;;13.83;100;98645.71;;;;
2021/09/11 20:28:29;;;;;;;30.1;25.9;;;;;;;13.59;100;98648.22;;;;
2021/09/11 20:38:29;;;;;;;32;25.7;;;;;;;13.44;100;98646.04;;;;
2021/09/11 20:48:28;;;;;;;30.6;27.6;;;;;;;13.18;100;98648.84;;;;
2021/09/11 20:58:27;;;;;;;34.7;28.6;;;;;;;13.02;100;98628.78;;;;
2021/09/11 21:08:26;;;;;;;28.4;25.4;;;;;;;12.86;100;98642.03;;;;
2021/09/11 21:18:25;;;;;;;31.6;26.6;;;;;;;12.63;100;98629.83;;;;
2021/09/11 21:28:25;;;;;;;35.5;28.7;;;;;;;12.56;100;98627.58;;;;
2021/09/11 21:38:24;;;;;;;32.7;25.5;;;;;;;12.5;100;98652.39;;;;
2021/09/11 21:48:23;;;;;;;33;24.3;;;;;;;12.39;100;98646.5;;;;
2021/09/11 21:58:22;;;;;;;23.3;20.9;;;;;;;12.29;100;98646.02;;;;
2021/09/11 22:08:22;;;;;;;32;23.3;;;;;;;12.26;100;98641.25;;;;
2021/09/11 22:18:20;;;;;;;31.4;19.3;;;;;;;12.15;100;98648.86;;;;
2021/09/11 22:28:20;;;;;;;23.3;20.8;;;;;;;12.02;100;98637.09;;;;
2021/09/11 22:38:19;;;;;;;23.3;18.3;;;;;;;11.96;100;98632.96;;;;
2021/09/11 22:48:18;;;;;;;22.5;17.5;;;;;;;11.85;100;98637.06;;;;
2021/09/11 22:58:17;;;;;;;19;13.7;;;;;;;11.79;100;98632.92;;;;
2021/09/11 23:08:16;;;;;;;19;14.6;;;;;;;11.69;100;98635.88;;;;
2021/09/11 23:18:15;;;;;;;16.8;13;;;;;;;11.58;100;98629.17;;;;
2021/09/11 23:28:14;;;;;;;18.2;14.9;;;;;;;11.41;100;98626.41;;;;
2021/09/11 23:38:13;;;;;;;18.6;13.8;;;;;;;11.31;100;98623.99;;;;
2021/09/11 23:48:12;;;;;;;16.8;11.6;;;;;;;11.3;100;98625.89;;;;
2021/09/11 23:58:12;;;;;;;12.7;10.5;;;;;;;11.29;100;98616.19;;;;
